Terminal Aerodrome Forecast
Issued by NWS

Home | Current Version | Previous Version | Text Only | Print | Product List | Glossary Off
Versions: 1 2 3 4 5 6 7 8 9 10 11 12 13 14 15 16 17 18 19

000
FTUS43 KIWX 210924 AAA
TAFSBN
TAF AMD
KSBN 210924Z 2109/2206 17007KT 6SM BR VCTS SCT008CB OVC015
      TEMPO 2109/2112 3SM -SHRA BR OVC005
     FM211200 22007KT 3SM BR BKN008
     FM211400 24008KT P6SM BKN015
     FM211600 25011G17KT P6SM BKN045=

USA.gov is the U.S. government's official web portal to all federal, state and local government web resources and services.